sensor_id;sensor_type;location;lat;lon;timestamp;P1;durP1;ratioP1;P2;durP2;ratioP2
13477;SDS011;12598;62.382;17.344;2024-02-28T00:00:19;0.47;;;0.43;;
13477;SDS011;12598;62.382;17.344;2024-02-28T00:01:21;0.30;;;0.30;;
13477;SDS011;12598;62.382;17.344;2024-02-28T00:02:24;0.80;;;0.50;;
13477;SDS011;12598;62.382;17.344;2024-02-28T00:03:26;0.60;;;0.52;;
13477;SDS011;12598;62.382;17.344;2024-02-28T00:04:27;0.40;;;0.40;;
13477;SDS011;12598;62.382;17.344;2024-02-28T00:05:30;0.85;;;0.57;;
13477;SDS011;12598;62.382;17.344;2024-02-28T00:06:32;0.50;;;0.40;;
13477;SDS011;12598;62.382;17.344;2024-02-28T00:07:34;0.32;;;0.30;;
13477;SDS011;12598;62.382;17.344;2024-02-28T00:08:36;0.43;;;0.30;;
13477;SDS011;12598;62.382;17.344;2024-02-28T00:09:38;0.73;;;0.50;;
13477;SDS011;12598;62.382;17.344;2024-02-28T00:10:40;0.47;;;0.40;;
13477;SDS011;12598;62.382;17.344;2024-02-28T00:11:45;0.30;;;0.25;;
13477;SDS011;12598;62.382;17.344;2024-02-28T00:12:47;0.70;;;0.47;;
13477;SDS011;12598;62.382;17.344;2024-02-28T00:13:50;0.60;;;0.50;;
13477;SDS011;12598;62.382;17.344;2024-02-28T00:14:52;0.45;;;0.30;;
13477;SDS011;12598;62.382;17.344;2024-02-28T00:15:54;0.52;;;0.40;;
13477;SDS011;12598;62.382;17.344;2024-02-28T00:16:56;0.50;;;0.40;;
13477;SDS011;12598;62.382;17.344;2024-02-28T00:17:58;0.52;;;0.47;;
13477;SDS011;12598;62.382;17.344;2024-02-28T00:19:00;0.60;;;0.30;;
13477;SDS011;12598;62.382;17.344;2024-02-28T00:20:01;0.43;;;0.43;;
13477;SDS011;12598;62.382;17.344;2024-02-28T00:21:03;0.68;;;0.57;;
13477;SDS011;12598;62.382;17.344;2024-02-28T00:22:05;0.40;;;0.30;;
13477;SDS011;12598;62.382;17.344;2024-02-28T00:23:07;0.80;;;0.60;;
13477;SDS011;12598;62.382;17.344;2024-02-28T00:24:09;0.40;;;0.40;;
13477;SDS011;12598;62.382;17.344;2024-02-28T00:25:11;0.52;;;0.40;;
13477;SDS011;12598;62.382;17.344;2024-02-28T00:26:15;0.70;;;0.40;;
13477;SDS011;12598;62.382;17.344;2024-02-28T00:27:17;0.68;;;0.40;;
13477;SDS011;12598;62.382;17.344;2024-02-28T00:28:18;0.32;;;0.32;;
13477;SDS011;12598;62.382;17.344;2024-02-28T00:29:20;0.50;;;0.40;;
13477;SDS011;12598;62.382;17.344;2024-02-28T00:30:22;1.63;;;0.45;;
13477;SDS011;12598;62.382;17.344;2024-02-28T00:31:24;0.47;;;0.30;;
13477;SDS011;12598;62.382;17.344;2024-02-28T00:32:27;0.50;;;0.40;;
13477;SDS011;12598;62.382;17.344;2024-02-28T00:33:29;0.40;;;0.20;;
13477;SDS011;12598;62.382;17.344;2024-02-28T00:34:30;0.85;;;0.52;;
13477;SDS011;12598;62.382;17.344;2024-02-28T00:35:32;0.45;;;0.20;;
13477;SDS011;12598;62.382;17.344;2024-02-28T00:36:35;0.43;;;0.35;;
13477;SDS011;12598;62.382;17.344;2024-02-28T00:37:55;0.45;;;0.30;;
13477;SDS011;12598;62.382;17.344;2024-02-28T00:38:57;0.47;;;0.30;;
13477;SDS011;12598;62.382;17.344;2024-02-28T00:39:58;0.55;;;0.40;;
13477;SDS011;12598;62.382;17.344;2024-02-28T00:41:00;0.47;;;0.30;;
13477;SDS011;12598;62.382;17.344;2024-02-28T00:42:02;0.40;;;0.40;;
13477;SDS011;12598;62.382;17.344;2024-02-28T00:43:04;0.30;;;0.20;;
13477;SDS011;12598;62.382;17.344;2024-02-28T00:44:06;0.60;;;0.30;;
13477;SDS011;12598;62.382;17.344;2024-02-28T00:45:08;0.38;;;0.35;;
13477;SDS011;12598;62.382;17.344;2024-02-28T00:46:11;0.30;;;0.30;;
13477;SDS011;12598;62.382;17.344;2024-02-28T00:47:14;0.60;;;0.50;;
13477;SDS011;12598;62.382;17.344;2024-02-28T00:48:15;0.40;;;0.35;;
13477;SDS011;12598;62.382;17.344;2024-02-28T00:49:17;0.30;;;0.30;;
13477;SDS011;12598;62.382;17.344;2024-02-28T00:50:19;0.30;;;0.20;;
13477;SDS011;12598;62.382;17.344;2024-02-28T00:51:21;0.30;;;0.30;;
13477;SDS011;12598;62.382;17.344;2024-02-28T00:52:23;0.40;;;0.40;;
13477;SDS011;12598;62.382;17.344;2024-02-28T00:53:26;0.30;;;0.25;;
13477;SDS011;12598;62.382;17.344;2024-02-28T00:54:28;0.50;;;0.30;;
13477;SDS011;12598;62.382;17.344;2024-02-28T00:55:30;0.32;;;0.30;;
13477;SDS011;12598;62.382;17.344;2024-02-28T00:56:32;0.40;;;0.20;;
13477;SDS011;12598;62.382;17.344;2024-02-28T00:57:33;0.30;;;0.20;;
13477;SDS011;12598;62.382;17.344;2024-02-28T00:58:35;0.30;;;0.30;;
13477;SDS011;12598;62.382;17.344;2024-02-28T00:59:37;0.52;;;0.40;;
13477;SDS011;12598;62.382;17.344;2024-02-28T01:00:39;0.50;;;0.40;;
13477;SDS011;12598;62.382;17.344;2024-02-28T01:01:41;0.38;;;0.30;;
13477;SDS011;12598;62.382;17.344;2024-02-28T01:02:43;0.35;;;0.32;;
13477;SDS011;12598;62.382;17.344;2024-02-28T01:03:45;0.38;;;0.30;;
13477;SDS011;12598;62.382;17.344;2024-02-28T01:04:47;0.40;;;0.32;;
13477;SDS011;12598;62.382;17.344;2024-02-28T01:05:49;0.30;;;0.30;;
13477;SDS011;12598;62.382;17.344;2024-02-28T01:06:52;0.40;;;0.30;;
13477;SDS011;12598;62.382;17.344;2024-02-28T01:07:54;0.75;;;0.30;;
13477;SDS011;12598;62.382;17.344;2024-02-28T01:08:55;0.57;;;0.25;;
13477;SDS011;12598;62.382;17.344;2024-02-28T01:09:57;0.32;;;0.28;;
13477;SDS011;12598;62.382;17.344;2024-02-28T01:10:59;0.45;;;0.40;;
13477;SDS011;12598;62.382;17.344;2024-02-28T01:12:01;0.68;;;0.40;;
13477;SDS011;12598;62.382;17.344;2024-02-28T01:13:02;0.65;;;0.32;;
13477;SDS011;12598;62.382;17.344;2024-02-28T01:14:04;0.52;;;0.30;;
13477;SDS011;12598;62.382;17.344;2024-02-28T01:15:06;0.50;;;0.40;;
13477;SDS011;12598;62.382;17.344;2024-02-28T01:16:08;0.32;;;0.25;;
13477;SDS011;12598;62.382;17.344;2024-02-28T01:17:10;0.43;;;0.30;;
13477;SDS011;12598;62.382;17.344;2024-02-28T01:18:12;0.20;;;0.20;;
13477;SDS011;12598;62.382;17.344;2024-02-28T01:19:15;1.48;;;0.22;;
13477;SDS011;12598;62.382;17.344;2024-02-28T01:20:17;0.50;;;0.30;;
13477;SDS011;12598;62.382;17.344;2024-02-28T01:21:19;0.68;;;0.50;;
13477;SDS011;12598;62.382;17.344;2024-02-28T01:22:21;0.57;;;0.30;;
13477;SDS011;12598;62.382;17.344;2024-02-28T01:23:23;1.08;;;0.30;;
13477;SDS011;12598;62.382;17.344;2024-02-28T01:24:25;0.40;;;0.40;;
13477;SDS011;12598;62.382;17.344;2024-02-28T01:25:26;0.40;;;0.30;;
13477;SDS011;12598;62.382;17.344;2024-02-28T01:26:28;0.32;;;0.20;;
13477;SDS011;12598;62.382;17.344;2024-02-28T01:27:30;0.32;;;0.20;;
13477;SDS011;12598;62.382;17.344;2024-02-28T01:28:32;0.20;;;0.20;;
13477;SDS011;12598;62.382;17.344;2024-02-28T01:29:33;0.60;;;0.30;;
13477;SDS011;12598;62.382;17.344;2024-02-28T01:30:35;0.30;;;0.30;;
13477;SDS011;12598;62.382;17.344;2024-02-28T01:31:37;0.30;;;0.30;;
13477;SDS011;12598;62.382;17.344;2024-02-28T01:32:39;0.40;;;0.35;;
13477;SDS011;12598;62.382;17.344;2024-02-28T01:33:41;0.35;;;0.30;;
13477;SDS011;12598;62.382;17.344;2024-02-28T01:34:42;0.30;;;0.25;;
13477;SDS011;12598;62.382;17.344;2024-02-28T01:35:44;0.30;;;0.30;;
13477;SDS011;12598;62.382;17.344;2024-02-28T01:36:46;0.25;;;0.25;;
13477;SDS011;12598;62.382;17.344;2024-02-28T01:37:48;0.40;;;0.40;;
13477;SDS011;12598;62.382;17.344;2024-02-28T01:38:50;0.30;;;0.30;;
13477;SDS011;12598;62.382;17.344;2024-02-28T01:39:52;0.63;;;0.40;;
13477;SDS011;12598;62.382;17.344;2024-02-28T01:40:54;0.30;;;0.30;;
13477;SDS011;12598;62.382;17.344;2024-02-28T01:41:55;0.50;;;0.22;;
13477;SDS011;12598;62.382;17.344;2024-02-28T01:43:07;0.40;;;0.30;;
13477;SDS011;12598;62.382;17.344;2024-02-28T01:44:10;0.60;;;0.40;;
13477;SDS011;12598;62.382;17.344;2024-02-28T01:45:12;0.40;;;0.38;;
13477;SDS011;12598;62.382;17.344;2024-02-28T01:46:25;1.20;;;0.38;;
13477;SDS011;12598;62.382;17.344;2024-02-28T01:47:28;0.40;;;0.30;;
13477;SDS011;12598;62.382;17.344;2024-02-28T01:48:30;0.40;;;0.35;;
13477;SDS011;12598;62.382;17.344;2024-02-28T01:49:33;0.32;;;0.30;;
13477;SDS011;12598;62.382;17.344;2024-02-28T01:50:35;0.40;;;0.35;;
13477;SDS011;12598;62.382;17.344;2024-02-28T01:51:38;0.82;;;0.63;;
13477;SDS011;12598;62.382;17.344;2024-02-28T01:52:41;0.68;;;0.60;;
13477;SDS011;12598;62.382;17.344;2024-02-28T01:53:44;1.00;;;0.60;;
13477;SDS011;12598;62.382;17.344;2024-02-28T01:54:47;0.98;;;0.68;;
13477;SDS011;12598;62.382;17.344;2024-02-28T01:55:49;0.70;;;0.70;;
13477;SDS011;12598;62.382;17.344;2024-02-28T01:56:51;1.00;;;0.90;;
13477;SDS011;12598;62.382;17.344;2024-02-28T01:57:52;1.30;;;0.98;;
13477;SDS011;12598;62.382;17.344;2024-02-28T01:58:55;1.30;;;1.05;;
13477;SDS011;12598;62.382;17.344;2024-02-28T01:59:58;1.65;;;0.95;;
13477;SDS011;12598;62.382;17.344;2024-02-28T02:01:01;1.08;;;0.95;;
13477;SDS011;12598;62.382;17.344;2024-02-28T02:02:05;1.50;;;1.10;;
13477;SDS011;12598;62.382;17.344;2024-02-28T02:03:07;1.00;;;0.90;;
13477;SDS011;12598;62.382;17.344;2024-02-28T02:04:09;2.00;;;1.25;;
13477;SDS011;12598;62.382;17.344;2024-02-28T02:05:11;1.10;;;0.90;;
13477;SDS011;12598;62.382;17.344;2024-02-28T02:06:13;1.67;;;1.27;;
13477;SDS011;12598;62.382;17.344;2024-02-28T02:07:15;1.92;;;1.20;;
13477;SDS011;12598;62.382;17.344;2024-02-28T02:08:17;2.72;;;1.33;;
13477;SDS011;12598;62.382;17.344;2024-02-28T02:09:18;1.77;;;1.25;;
13477;SDS011;12598;62.382;17.344;2024-02-28T02:10:20;3.22;;;1.38;;
13477;SDS011;12598;62.382;17.344;2024-02-28T02:11:22;1.20;;;1.00;;
13477;SDS011;12598;62.382;17.344;2024-02-28T02:12:25;1.67;;;1.35;;
13477;SDS011;12598;62.382;17.344;2024-02-28T02:13:27;1.42;;;1.33;;
13477;SDS011;12598;62.382;17.344;2024-02-28T02:14:29;1.58;;;1.48;;
13477;SDS011;12598;62.382;17.344;2024-02-28T02:15:31;2.08;;;1.38;;
13477;SDS011;12598;62.382;17.344;2024-02-28T02:16:32;1.52;;;1.33;;
13477;SDS011;12598;62.382;17.344;2024-02-28T02:17:34;1.95;;;1.35;;
13477;SDS011;12598;62.382;17.344;2024-02-28T02:18:36;2.28;;;1.00;;
13477;SDS011;12598;62.382;17.344;2024-02-28T02:19:38;2.00;;;1.17;;
13477;SDS011;12598;62.382;17.344;2024-02-28T02:20:41;2.08;;;1.35;;
13477;SDS011;12598;62.382;17.344;2024-02-28T02:21:49;1.38;;;1.20;;
13477;SDS011;12598;62.382;17.344;2024-02-28T02:22:54;2.30;;;1.23;;
13477;SDS011;12598;62.382;17.344;2024-02-28T02:23:55;1.60;;;1.30;;
13477;SDS011;12598;62.382;17.344;2024-02-28T02:24:57;1.20;;;1.05;;
13477;SDS011;12598;62.382;17.344;2024-02-28T02:25:59;1.63;;;1.10;;
13477;SDS011;12598;62.382;17.344;2024-02-28T02:27:01;1.60;;;0.88;;
13477;SDS011;12598;62.382;17.344;2024-02-28T02:28:04;1.83;;;0.95;;
13477;SDS011;12598;62.382;17.344;2024-02-28T02:29:06;1.80;;;1.17;;
13477;SDS011;12598;62.382;17.344;2024-02-28T02:30:10;2.33;;;0.82;;
13477;SDS011;12598;62.382;17.344;2024-02-28T02:31:13;1.20;;;0.80;;
13477;SDS011;12598;62.382;17.344;2024-02-28T02:32:15;1.85;;;1.02;;
13477;SDS011;12598;62.382;17.344;2024-02-28T02:33:16;0.90;;;0.80;;
13477;SDS011;12598;62.382;17.344;2024-02-28T02:34:18;1.05;;;0.85;;
13477;SDS011;12598;62.382;17.344;2024-02-28T02:35:20;0.70;;;0.70;;
13477;SDS011;12598;62.382;17.344;2024-02-28T02:36:22;0.45;;;0.45;;
13477;SDS011;12598;62.382;17.344;2024-02-28T02:37:23;2.58;;;0.88;;
13477;SDS011;12598;62.382;17.344;2024-02-28T02:38:25;0.98;;;0.55;;
13477;SDS011;12598;62.382;17.344;2024-02-28T02:39:27;0.90;;;0.57;;
13477;SDS011;12598;62.382;17.344;2024-02-28T02:40:29;0.70;;;0.40;;
13477;SDS011;12598;62.382;17.344;2024-02-28T02:41:31;0.70;;;0.50;;
13477;SDS011;12598;62.382;17.344;2024-02-28T02:42:33;0.63;;;0.40;;
13477;SDS011;12598;62.382;17.344;2024-02-28T02:43:34;0.50;;;0.50;;
13477;SDS011;12598;62.382;17.344;2024-02-28T02:44:36;1.17;;;0.60;;
13477;SDS011;12598;62.382;17.344;2024-02-28T02:45:38;0.65;;;0.50;;
13477;SDS011;12598;62.382;17.344;2024-02-28T02:46:40;0.47;;;0.40;;
13477;SDS011;12598;62.382;17.344;2024-02-28T02:47:42;0.60;;;0.32;;
13477;SDS011;12598;62.382;17.344;2024-02-28T02:48:45;0.75;;;0.60;;
13477;SDS011;12598;62.382;17.344;2024-02-28T02:49:47;0.40;;;0.40;;
13477;SDS011;12598;62.382;17.344;2024-02-28T02:50:49;0.63;;;0.40;;
13477;SDS011;12598;62.382;17.344;2024-02-28T02:51:50;0.52;;;0.40;;
13477;SDS011;12598;62.382;17.344;2024-02-28T02:52:52;0.77;;;0.38;;
13477;SDS011;12598;62.382;17.344;2024-02-28T02:53:54;0.30;;;0.22;;
13477;SDS011;12598;62.382;17.344;2024-02-28T02:54:56;0.57;;;0.50;;
13477;SDS011;12598;62.382;17.344;2024-02-28T02:55:57;0.65;;;0.20;;
13477;SDS011;12598;62.382;17.344;2024-02-28T02:56:59;0.50;;;0.30;;
13477;SDS011;12598;62.382;17.344;2024-02-28T02:58:01;0.22;;;0.20;;
13477;SDS011;12598;62.382;17.344;2024-02-28T02:59:04;0.50;;;0.20;;
13477;SDS011;12598;62.382;17.344;2024-02-28T03:00:08;0.45;;;0.20;;
13477;SDS011;12598;62.382;17.344;2024-02-28T03:01:10;0.55;;;0.40;;
13477;SDS011;12598;62.382;17.344;2024-02-28T03:02:12;0.45;;;0.35;;
13477;SDS011;12598;62.382;17.344;2024-02-28T03:03:14;0.30;;;0.30;;
13477;SDS011;12598;62.382;17.344;2024-02-28T03:04:16;0.40;;;0.30;;
13477;SDS011;12598;62.382;17.344;2024-02-28T03:05:18;0.40;;;0.30;;
13477;SDS011;12598;62.382;17.344;2024-02-28T03:06:19;0.50;;;0.32;;
13477;SDS011;12598;62.382;17.344;2024-02-28T03:07:22;0.32;;;0.32;;
13477;SDS011;12598;62.382;17.344;2024-02-28T03:08:24;0.40;;;0.32;;
13477;SDS011;12598;62.382;17.344;2024-02-28T03:09:25;0.55;;;0.30;;
13477;SDS011;12598;62.382;17.344;2024-02-28T03:10:27;0.55;;;0.20;;
13477;SDS011;12598;62.382;17.344;2024-02-28T03:11:30;0.30;;;0.20;;
13477;SDS011;12598;62.382;17.344;2024-02-28T03:12:32;0.65;;;0.30;;
13477;SDS011;12598;62.382;17.344;2024-02-28T03:13:34;0.17;;;0.10;;
13477;SDS011;12598;62.382;17.344;2024-02-28T03:14:36;0.60;;;0.22;;
13477;SDS011;12598;62.382;17.344;2024-02-28T03:15:38;0.60;;;0.30;;
13477;SDS011;12598;62.382;17.344;2024-02-28T03:16:43;0.30;;;0.20;;
13477;SDS011;12598;62.382;17.344;2024-02-28T03:17:45;0.30;;;0.20;;
13477;SDS011;12598;62.382;17.344;2024-02-28T03:18:47;0.20;;;0.20;;
13477;SDS011;12598;62.382;17.344;2024-02-28T03:19:49;0.63;;;0.30;;
13477;SDS011;12598;62.382;17.344;2024-02-28T03:20:50;0.30;;;0.20;;
13477;SDS011;12598;62.382;17.344;2024-02-28T03:21:52;0.45;;;0.20;;
13477;SDS011;12598;62.382;17.344;2024-02-28T03:22:54;0.22;;;0.20;;
13477;SDS011;12598;62.382;17.344;2024-02-28T03:23:56;0.10;;;0.10;;
13477;SDS011;12598;62.382;17.344;2024-02-28T03:24:58;0.38;;;0.25;;
13477;SDS011;12598;62.382;17.344;2024-02-28T03:25:59;0.60;;;0.20;;
13477;SDS011;12598;62.382;17.344;2024-02-28T03:27:02;0.20;;;0.20;;
13477;SDS011;12598;62.382;17.344;2024-02-28T03:28:04;0.30;;;0.20;;
13477;SDS011;12598;62.382;17.344;2024-02-28T03:29:05;0.20;;;0.20;;
13477;SDS011;12598;62.382;17.344;2024-02-28T03:30:08;0.50;;;0.30;;
13477;SDS011;12598;62.382;17.344;2024-02-28T03:31:09;0.32;;;0.25;;
13477;SDS011;12598;62.382;17.344;2024-02-28T03:32:11;0.40;;;0.20;;
13477;SDS011;12598;62.382;17.344;2024-02-28T03:33:13;0.60;;;0.30;;
13477;SDS011;12598;62.382;17.344;2024-02-28T03:34:15;0.28;;;0.10;;
13477;SDS011;12598;62.382;17.344;2024-02-28T03:35:17;0.30;;;0.20;;
13477;SDS011;12598;62.382;17.344;2024-02-28T03:36:18;0.75;;;0.30;;
13477;SDS011;12598;62.382;17.344;2024-02-28T03:37:21;0.32;;;0.25;;
13477;SDS011;12598;62.382;17.344;2024-02-28T03:38:22;0.35;;;0.20;;
13477;SDS011;12598;62.382;17.344;2024-02-28T03:39:24;0.63;;;0.20;;
13477;SDS011;12598;62.382;17.344;2024-02-28T03:40:26;0.45;;;0.20;;
13477;SDS011;12598;62.382;17.344;2024-02-28T03:41:28;0.47;;;0.40;;
13477;SDS011;12598;62.382;17.344;2024-02-28T03:42:30;0.40;;;0.32;;
13477;SDS011;12598;62.382;17.344;2024-02-28T03:43:32;0.30;;;0.30;;
13477;SDS011;12598;62.382;17.344;2024-02-28T03:44:33;0.20;;;0.20;;
13477;SDS011;12598;62.382;17.344;2024-02-28T03:45:38;0.28;;;0.20;;
13477;SDS011;12598;62.382;17.344;2024-02-28T03:46:41;0.20;;;0.20;;
13477;SDS011;12598;62.382;17.344;2024-02-28T03:47:42;0.60;;;0.40;;
13477;SDS011;12598;62.382;17.344;2024-02-28T03:48:44;0.40;;;0.30;;
13477;SDS011;12598;62.382;17.344;2024-02-28T03:49:46;0.32;;;0.30;;
13477;SDS011;12598;62.382;17.344;2024-02-28T03:50:48;0.65;;;0.40;;
13477;SDS011;12598;62.382;17.344;2024-02-28T03:51:50;0.30;;;0.30;;
13477;SDS011;12598;62.382;17.344;2024-02-28T03:52:51;0.30;;;0.20;;
13477;SDS011;12598;62.382;17.344;2024-02-28T03:53:53;0.70;;;0.35;;
13477;SDS011;12598;62.382;17.344;2024-02-28T03:54:55;0.50;;;0.35;;
13477;SDS011;12598;62.382;17.344;2024-02-28T03:55:58;0.40;;;0.40;;
13477;SDS011;12598;62.382;17.344;2024-02-28T03:57:00;0.95;;;0.30;;
13477;SDS011;12598;62.382;17.344;2024-02-28T03:58:02;0.40;;;0.30;;
13477;SDS011;12598;62.382;17.344;2024-02-28T03:59:04;0.70;;;0.20;;
13477;SDS011;12598;62.382;17.344;2024-02-28T04:00:06;0.63;;;0.55;;
13477;SDS011;12598;62.382;17.344;2024-02-28T04:01:14;0.38;;;0.20;;
13477;SDS011;12598;62.382;17.344;2024-02-28T04:02:17;0.90;;;0.30;;
13477;SDS011;12598;62.382;17.344;2024-02-28T04:03:18;0.60;;;0.30;;
13477;SDS011;12598;62.382;17.344;2024-02-28T04:04:20;0.50;;;0.40;;
13477;SDS011;12598;62.382;17.344;2024-02-28T04:05:22;0.38;;;0.20;;
13477;SDS011;12598;62.382;17.344;2024-02-28T04:06:24;1.45;;;0.30;;
13477;SDS011;12598;62.382;17.344;2024-02-28T04:07:26;0.38;;;0.35;;
13477;SDS011;12598;62.382;17.344;2024-02-28T04:08:28;0.40;;;0.30;;
13477;SDS011;12598;62.382;17.344;2024-02-28T04:09:29;0.45;;;0.40;;
13477;SDS011;12598;62.382;17.344;2024-02-28T04:10:31;0.47;;;0.40;;
13477;SDS011;12598;62.382;17.344;2024-02-28T04:11:33;0.85;;;0.47;;
13477;SDS011;12598;62.382;17.344;2024-02-28T04:12:35;0.70;;;0.40;;
13477;SDS011;12598;62.382;17.344;2024-02-28T04:13:37;0.90;;;0.40;;
13477;SDS011;12598;62.382;17.344;2024-02-28T04:14:39;0.40;;;0.40;;
13477;SDS011;12598;62.382;17.344;2024-02-28T04:15:41;0.70;;;0.57;;
13477;SDS011;12598;62.382;17.344;2024-02-28T04:16:43;0.70;;;0.50;;
13477;SDS011;12598;62.382;17.344;2024-02-28T04:17:45;1.85;;;0.50;;
13477;SDS011;12598;62.382;17.344;2024-02-28T04:18:47;0.68;;;0.43;;
13477;SDS011;12598;62.382;17.344;2024-02-28T04:19:49;0.57;;;0.30;;
13477;SDS011;12598;62.382;17.344;2024-02-28T04:20:50;1.38;;;0.50;;
13477;SDS011;12598;62.382;17.344;2024-02-28T04:21:52;0.40;;;0.35;;
13477;SDS011;12598;62.382;17.344;2024-02-28T04:22:54;1.02;;;0.57;;
13477;SDS011;12598;62.382;17.344;2024-02-28T04:23:56;0.30;;;0.30;;
13477;SDS011;12598;62.382;17.344;2024-02-28T04:24:58;0.90;;;0.43;;
13477;SDS011;12598;62.382;17.344;2024-02-28T04:26:00;0.63;;;0.60;;
13477;SDS011;12598;62.382;17.344;2024-02-28T04:27:01;0.45;;;0.38;;
13477;SDS011;12598;62.382;17.344;2024-02-28T04:28:06;0.70;;;0.40;;
13477;SDS011;12598;62.382;17.344;2024-02-28T04:29:10;0.45;;;0.40;;
13477;SDS011;12598;62.382;17.344;2024-02-28T04:30:15;0.45;;;0.40;;
13477;SDS011;12598;62.382;17.344;2024-02-28T04:31:17;0.70;;;0.30;;
13477;SDS011;12598;62.382;17.344;2024-02-28T04:32:19;0.82;;;0.35;;
13477;SDS011;12598;62.382;17.344;2024-02-28T04:33:21;0.82;;;0.50;;
13477;SDS011;12598;62.382;17.344;2024-02-28T04:34:24;0.60;;;0.40;;
13477;SDS011;12598;62.382;17.344;2024-02-28T04:35:26;0.52;;;0.40;;
13477;SDS011;12598;62.382;17.344;2024-02-28T04:36:27;0.90;;;0.40;;
13477;SDS011;12598;62.382;17.344;2024-02-28T04:37:29;0.50;;;0.30;;
13477;SDS011;12598;62.382;17.344;2024-02-28T04:38:31;0.32;;;0.30;;
13477;SDS011;12598;62.382;17.344;2024-02-28T04:39:33;0.60;;;0.50;;
13477;SDS011;12598;62.382;17.344;2024-02-28T04:40:35;0.50;;;0.40;;
13477;SDS011;12598;62.382;17.344;2024-02-28T04:41:37;0.75;;;0.50;;
13477;SDS011;12598;62.382;17.344;2024-02-28T04:42:39;0.50;;;0.30;;
13477;SDS011;12598;62.382;17.344;2024-02-28T04:43:41;0.50;;;0.50;;
13477;SDS011;12598;62.382;17.344;2024-02-28T04:44:43;0.80;;;0.52;;
13477;SDS011;12598;62.382;17.344;2024-02-28T04:45:44;0.60;;;0.20;;
13477;SDS011;12598;62.382;17.344;2024-02-28T04:46:46;1.05;;;0.35;;
13477;SDS011;12598;62.382;17.344;2024-02-28T04:47:48;0.52;;;0.32;;
13477;SDS011;12598;62.382;17.344;2024-02-28T04:48:52;0.55;;;0.35;;
13477;SDS011;12598;62.382;17.344;2024-02-28T04:49:53;0.40;;;0.30;;
13477;SDS011;12598;62.382;17.344;2024-02-28T04:50:56;0.50;;;0.40;;
13477;SDS011;12598;62.382;17.344;2024-02-28T04:51:58;0.43;;;0.40;;
13477;SDS011;12598;62.382;17.344;2024-02-28T04:53:00;0.82;;;0.40;;
13477;SDS011;12598;62.382;17.344;2024-02-28T04:54:01;0.47;;;0.30;;
13477;SDS011;12598;62.382;17.344;2024-02-28T04:55:04;0.68;;;0.52;;
13477;SDS011;12598;62.382;17.344;2024-02-28T04:56:06;0.77;;;0.50;;
13477;SDS011;12598;62.382;17.344;2024-02-28T04:57:08;0.57;;;0.40;;
13477;SDS011;12598;62.382;17.344;2024-02-28T04:58:11;0.75;;;0.50;;
13477;SDS011;12598;62.382;17.344;2024-02-28T04:59:13;0.47;;;0.30;;
13477;SDS011;12598;62.382;17.344;2024-02-28T05:00:15;0.60;;;0.30;;
13477;SDS011;12598;62.382;17.344;2024-02-28T05:01:17;0.85;;;0.40;;
13477;SDS011;12598;62.382;17.344;2024-02-28T05:02:22;0.43;;;0.22;;
13477;SDS011;12598;62.382;17.344;2024-02-28T05:03:25;0.55;;;0.40;;
13477;SDS011;12598;62.382;17.344;2024-02-28T05:04:27;0.60;;;0.50;;
13477;SDS011;12598;62.382;17.344;2024-02-28T05:05:29;1.38;;;0.50;;
13477;SDS011;12598;62.382;17.344;2024-02-28T05:06:31;0.60;;;0.47;;
13477;SDS011;12598;62.382;17.344;2024-02-28T05:07:32;0.60;;;0.30;;
13477;SDS011;12598;62.382;17.344;2024-02-28T05:08:37;0.73;;;0.40;;
13477;SDS011;12598;62.382;17.344;2024-02-28T05:09:42;0.50;;;0.30;;
13477;SDS011;12598;62.382;17.344;2024-02-28T05:10:43;0.40;;;0.22;;
13477;SDS011;12598;62.382;17.344;2024-02-28T05:11:45;0.52;;;0.38;;
13477;SDS011;12598;62.382;17.344;2024-02-28T05:12:47;0.50;;;0.30;;
13477;SDS011;12598;62.382;17.344;2024-02-28T05:13:49;0.63;;;0.20;;
13477;SDS011;12598;62.382;17.344;2024-02-28T05:14:51;0.77;;;0.40;;
13477;SDS011;12598;62.382;17.344;2024-02-28T05:15:55;0.22;;;0.20;;
13477;SDS011;12598;62.382;17.344;2024-02-28T05:16:58;0.38;;;0.30;;
13477;SDS011;12598;62.382;17.344;2024-02-28T05:18:00;0.30;;;0.30;;
13477;SDS011;12598;62.382;17.344;2024-02-28T05:19:01;0.55;;;0.40;;
13477;SDS011;12598;62.382;17.344;2024-02-28T05:20:06;0.25;;;0.20;;
13477;SDS011;12598;62.382;17.344;2024-02-28T05:21:08;0.82;;;0.30;;
13477;SDS011;12598;62.382;17.344;2024-02-28T05:22:10;1.45;;;0.30;;
13477;SDS011;12598;62.382;17.344;2024-02-28T05:23:12;1.17;;;0.50;;
13477;SDS011;12598;62.382;17.344;2024-02-28T05:24:14;0.40;;;0.38;;
13477;SDS011;12598;62.382;17.344;2024-02-28T05:25:16;0.95;;;0.30;;
13477;SDS011;12598;62.382;17.344;2024-02-28T05:26:18;0.35;;;0.30;;
13477;SDS011;12598;62.382;17.344;2024-02-28T05:27:20;0.70;;;0.40;;
13477;SDS011;12598;62.382;17.344;2024-02-28T05:28:22;0.63;;;0.45;;
13477;SDS011;12598;62.382;17.344;2024-02-28T05:29:24;0.40;;;0.40;;
13477;SDS011;12598;62.382;17.344;2024-02-28T05:30:27;0.28;;;0.25;;
13477;SDS011;12598;62.382;17.344;2024-02-28T05:31:29;0.55;;;0.35;;
13477;SDS011;12598;62.382;17.344;2024-02-28T05:32:33;0.40;;;0.40;;
13477;SDS011;12598;62.382;17.344;2024-02-28T05:33:35;0.43;;;0.30;;
13477;SDS011;12598;62.382;17.344;2024-02-28T05:34:37;0.35;;;0.30;;
13477;SDS011;12598;62.382;17.344;2024-02-28T05:35:39;0.40;;;0.40;;
13477;SDS011;12598;62.382;17.344;2024-02-28T05:36:41;0.50;;;0.20;;
13477;SDS011;12598;62.382;17.344;2024-02-28T05:37:44;0.32;;;0.28;;
13477;SDS011;12598;62.382;17.344;2024-02-28T05:38:47;0.30;;;0.30;;
13477;SDS011;12598;62.382;17.344;2024-02-28T05:39:49;0.50;;;0.28;;
13477;SDS011;12598;62.382;17.344;2024-02-28T05:40:51;0.68;;;0.38;;
13477;SDS011;12598;62.382;17.344;2024-02-28T05:41:53;1.08;;;0.32;;
13477;SDS011;12598;62.382;17.344;2024-02-28T05:42:55;1.35;;;0.50;;
13477;SDS011;12598;62.382;17.344;2024-02-28T05:43:57;0.70;;;0.40;;
13477;SDS011;12598;62.382;17.344;2024-02-28T05:44:59;0.85;;;0.40;;
13477;SDS011;12598;62.382;17.344;2024-02-28T05:46:01;0.38;;;0.30;;
13477;SDS011;12598;62.382;17.344;2024-02-28T05:47:02;0.43;;;0.30;;
13477;SDS011;12598;62.382;17.344;2024-02-28T05:48:04;1.20;;;0.50;;
13477;SDS011;12598;62.382;17.344;2024-02-28T05:49:07;0.98;;;0.40;;
13477;SDS011;12598;62.382;17.344;2024-02-28T05:50:09;0.52;;;0.40;;
13477;SDS011;12598;62.382;17.344;2024-02-28T05:51:12;0.70;;;0.40;;
13477;SDS011;12598;62.382;17.344;2024-02-28T05:52:17;0.50;;;0.30;;
13477;SDS011;12598;62.382;17.344;2024-02-28T05:53:19;0.52;;;0.45;;
13477;SDS011;12598;62.382;17.344;2024-02-28T05:54:21;0.40;;;0.35;;
13477;SDS011;12598;62.382;17.344;2024-02-28T05:55:23;0.43;;;0.32;;
13477;SDS011;12598;62.382;17.344;2024-02-28T05:56:25;0.55;;;0.30;;
13477;SDS011;12598;62.382;17.344;2024-02-28T05:57:27;1.73;;;0.47;;
13477;SDS011;12598;62.382;17.344;2024-02-28T05:58:29;0.50;;;0.50;;
13477;SDS011;12598;62.382;17.344;2024-02-28T05:59:31;0.50;;;0.30;;
13477;SDS011;12598;62.382;17.344;2024-02-28T06:00:34;0.40;;;0.30;;
13477;SDS011;12598;62.382;17.344;2024-02-28T06:01:36;0.63;;;0.47;;
13477;SDS011;12598;62.382;17.344;2024-02-28T06:02:39;0.30;;;0.30;;
13477;SDS011;12598;62.382;17.344;2024-02-28T06:03:41;0.60;;;0.40;;
13477;SDS011;12598;62.382;17.344;2024-02-28T06:04:43;0.55;;;0.30;;
13477;SDS011;12598;62.382;17.344;2024-02-28T06:05:45;0.70;;;0.50;;
13477;SDS011;12598;62.382;17.344;2024-02-28T06:06:48;0.77;;;0.50;;
13477;SDS011;12598;62.382;17.344;2024-02-28T06:07:52;0.50;;;0.47;;
13477;SDS011;12598;62.382;17.344;2024-02-28T06:08:54;0.52;;;0.30;;